createdAt,value
2023-08-13T00:03:49.291Z,14.45
2023-08-13T00:07:51.480Z,14.38
2023-08-13T00:11:57.235Z,14.36
2023-08-13T00:15:59.786Z,14.29
2023-08-13T00:20:01.537Z,14.21
2023-08-13T00:24:03.902Z,14.24
2023-08-13T00:28:06.156Z,14.21
2023-08-13T00:32:07.964Z,14.21
2023-08-13T00:36:10.105Z,14.22
2023-08-13T00:40:12.881Z,14.27
2023-08-13T00:44:14.605Z,14.33
2023-08-13T00:48:17.534Z,14.35
2023-08-13T00:52:19.803Z,14.36
2023-08-13T00:56:23.609Z,14.39
2023-08-13T01:00:27.587Z,14.46
2023-08-13T01:04:29.942Z,14.49
2023-08-13T01:09:14.671Z,14.47
2023-08-13T01:13:29.613Z,14.47
2023-08-13T01:17:34.856Z,14.40
2023-08-13T01:21:36.595Z,14.34
2023-08-13T01:25:40.034Z,14.27
2023-08-13T01:29:48.309Z,14.25
2023-08-13T01:33:52.078Z,14.24
2023-08-13T01:37:55.826Z,14.25
2023-08-13T01:41:57.770Z,14.28
2023-08-13T01:46:01.724Z,14.32
2023-08-13T01:50:04.018Z,14.43
2023-08-13T01:54:06.505Z,14.54
2023-08-13T01:58:09.130Z,14.66
2023-08-13T02:02:11.688Z,14.85
2023-08-13T02:06:14.273Z,15.04
2023-08-13T02:10:16.557Z,15.16
2023-08-13T02:14:18.796Z,15.20
2023-08-13T02:18:20.952Z,15.35
2023-08-13T02:22:24.345Z,15.41
2023-08-13T02:26:26.377Z,15.40
2023-08-13T02:30:28.481Z,15.41
2023-08-13T02:34:34.588Z,15.44
2023-08-13T02:38:37.191Z,15.50
2023-08-13T02:42:39.176Z,15.49
2023-08-13T02:46:42.089Z,15.49
2023-08-13T02:50:44.189Z,15.51
2023-08-13T02:54:46.175Z,15.52
2023-08-13T02:58:48.428Z,15.47
2023-08-13T03:02:50.628Z,15.48
2023-08-13T03:06:52.749Z,15.47
2023-08-13T03:10:54.902Z,15.42
2023-08-13T03:14:57.267Z,15.36
2023-08-13T03:18:59.584Z,15.26
2023-08-13T03:23:01.976Z,15.16
2023-08-13T03:27:04.416Z,15.15
2023-08-13T03:31:08.219Z,15.12
2023-08-13T03:35:18.679Z,15.14
2023-08-13T03:39:22.577Z,15.11
2023-08-13T03:43:24.723Z,15.10
2023-08-13T03:47:26.875Z,15.14
2023-08-13T03:51:29.000Z,15.11
2023-08-13T03:55:32.720Z,15.18
2023-08-13T03:59:35.592Z,15.20
2023-08-13T04:03:39.035Z,15.22
2023-08-13T04:07:42.668Z,15.21
2023-08-13T04:11:45.350Z,15.24
2023-08-13T04:15:47.538Z,15.30
2023-08-13T04:19:51.260Z,15.36
2023-08-13T04:23:55.825Z,15.39
2023-08-13T04:27:58.372Z,15.48
2023-08-13T04:32:00.749Z,15.57
2023-08-13T04:36:02.874Z,15.57
2023-08-13T04:40:06.967Z,15.74
2023-08-13T04:44:09.152Z,15.83
2023-08-13T04:48:11.426Z,15.97
2023-08-13T04:52:15.088Z,16.13
2023-08-13T04:56:17.409Z,16.35
2023-08-13T05:00:19.897Z,16.51
2023-08-13T05:04:22.899Z,16.79
2023-08-13T05:08:25.241Z,17.06
2023-08-13T05:12:28.709Z,17.37
2023-08-13T05:16:32.391Z,17.68
2023-08-13T05:20:34.588Z,17.85
2023-08-13T05:24:37.071Z,18.14
2023-08-13T05:28:39.312Z,18.43
2023-08-13T05:32:42.024Z,18.51
2023-08-13T05:36:44.173Z,18.55
2023-08-13T05:40:46.236Z,18.51
2023-08-13T05:44:49.042Z,18.63
2023-08-13T05:48:52.522Z,18.86
2023-08-13T05:52:55.124Z,19.17
2023-08-13T05:56:57.261Z,19.45
2023-08-13T06:00:59.329Z,19.63
2023-08-13T06:05:01.375Z,19.96
2023-08-13T06:09:03.774Z,20.13
2023-08-13T06:13:06.041Z,20.14
2023-08-13T06:17:14.583Z,20.12
2023-08-13T06:21:17.280Z,20.59
2023-08-13T06:25:19.374Z,20.83
2023-08-13T06:29:21.354Z,21.09
2023-08-13T06:33:23.480Z,21.09
2023-08-13T06:37:25.549Z,20.91
2023-08-13T06:41:28.166Z,20.85
2023-08-13T06:45:33.917Z,21.24
2023-08-13T06:49:36.038Z,21.60
2023-08-13T06:53:38.027Z,22.05
2023-08-13T06:57:40.062Z,22.01
2023-08-13T07:01:42.207Z,21.94
2023-08-13T07:05:44.293Z,21.88
2023-08-13T07:09:46.335Z,21.94
2023-08-13T07:13:52.260Z,21.98
2023-08-13T07:17:54.470Z,22.13
2023-08-13T07:21:56.669Z,22.44
2023-08-13T07:25:59.042Z,22.90
2023-08-13T07:30:01.866Z,23.08
2023-08-13T07:34:04.361Z,23.05
2023-08-13T07:38:06.765Z,22.99
2023-08-13T07:42:10.051Z,23.24
2023-08-13T07:46:11.891Z,23.88
2023-08-13T07:50:14.378Z,24.00
2023-08-13T07:54:17.989Z,23.83
2023-08-13T07:58:21.636Z,23.95
2023-08-13T08:02:24.604Z,24.62
2023-08-13T08:06:28.966Z,24.76
2023-08-13T08:10:31.269Z,24.79
2023-08-13T08:14:33.301Z,25.07
2023-08-13T08:18:35.342Z,25.39
2023-08-13T08:22:37.402Z,25.68
2023-08-13T08:26:39.601Z,25.83
2023-08-13T08:30:41.621Z,25.76
2023-08-13T08:34:43.670Z,25.90
2023-08-13T08:38:45.642Z,26.22
2023-08-13T08:42:47.853Z,26.34
2023-08-13T08:46:51.329Z,26.41
2023-08-13T08:50:54.079Z,26.33
2023-08-13T08:54:56.806Z,26.80
2023-08-13T08:58:58.971Z,26.94
2023-08-13T09:03:02.674Z,27.14
2023-08-13T09:07:07.544Z,27.18
2023-08-13T09:11:10.497Z,27.35
2023-08-13T09:15:13.912Z,27.69
2023-08-13T09:19:17.198Z,27.84
2023-08-13T09:23:23.082Z,27.81
2023-08-13T09:27:25.631Z,28.23
2023-08-13T09:31:27.760Z,28.37
2023-08-13T09:35:29.951Z,28.59
2023-08-13T09:39:32.534Z,28.75
2023-08-13T09:43:36.039Z,28.77
2023-08-13T09:47:41.665Z,28.94
2023-08-13T09:51:45.802Z,29.04
2023-08-13T09:55:52.997Z,29.28
2023-08-13T09:59:56.078Z,29.34
2023-08-13T10:03:59.149Z,29.54
2023-08-13T10:08:01.293Z,29.49
2023-08-13T10:12:06.761Z,29.50
2023-08-13T10:16:09.834Z,29.44
2023-08-13T10:20:12.276Z,29.54
2023-08-13T10:24:14.519Z,29.64
2023-08-13T10:28:34.098Z,29.97
2023-08-13T10:32:55.403Z,29.92
2023-08-13T10:36:57.582Z,29.91
2023-08-13T10:41:03.440Z,30.13
2023-08-13T10:45:06.843Z,30.30
2023-08-13T10:49:08.928Z,30.13
2023-08-13T10:53:22.263Z,30.28
2023-08-13T10:57:29.393Z,30.30
2023-08-13T11:01:31.231Z,30.68
2023-08-13T11:05:33.643Z,30.78
2023-08-13T11:09:36.704Z,30.61
2023-08-13T11:13:38.866Z,30.67
2023-08-13T11:17:47.856Z,30.54
2023-08-13T11:21:52.302Z,30.75
2023-08-13T11:25:55.393Z,30.50
2023-08-13T11:29:58.972Z,30.55
2023-08-13T11:34:01.621Z,30.74
2023-08-13T11:38:03.955Z,30.69
2023-08-13T11:42:10.064Z,30.96
2023-08-13T11:46:12.320Z,31.04
2023-08-13T11:50:22.102Z,31.02
2023-08-13T11:54:24.041Z,30.88
2023-08-13T11:58:26.566Z,30.74
2023-08-13T12:02:28.370Z,30.69
2023-08-13T12:06:31.053Z,30.69
2023-08-13T12:10:34.437Z,30.79
2023-08-13T12:14:43.397Z,31.04
2023-08-13T12:18:45.746Z,31.09
2023-08-13T12:22:48.066Z,30.78
2023-08-13T12:26:50.061Z,30.31
2023-08-13T12:30:52.244Z,30.20
2023-08-13T12:34:54.357Z,30.10
2023-08-13T12:38:56.408Z,30.40
2023-08-13T12:42:58.364Z,30.39
2023-08-13T12:47:00.692Z,30.33
2023-08-13T12:51:06.569Z,30.10
2023-08-13T12:55:09.274Z,30.08
2023-08-13T12:59:11.481Z,30.14
2023-08-13T13:03:13.667Z,30.42
2023-08-13T13:07:15.966Z,30.85
2023-08-13T13:11:18.815Z,30.91
2023-08-13T13:15:21.619Z,31.02
2023-08-13T13:19:23.861Z,31.06
2023-08-13T13:23:25.889Z,31.25
2023-08-13T13:27:28.026Z,30.83
2023-08-13T13:31:30.159Z,30.29
2023-08-13T13:35:32.588Z,30.24
2023-08-13T13:39:34.911Z,30.36
2023-08-13T13:43:37.304Z,30.31
2023-08-13T13:47:39.397Z,30.54
2023-08-13T13:51:42.704Z,30.47
2023-08-13T13:55:44.743Z,30.65
2023-08-13T13:59:46.910Z,30.64
2023-08-13T14:03:49.118Z,30.69
2023-08-13T14:07:51.725Z,30.87
2023-08-13T14:11:53.737Z,30.88
2023-08-13T14:15:59.655Z,30.47
2023-08-13T14:20:01.794Z,30.18
2023-08-13T14:24:04.427Z,30.60
2023-08-13T14:28:07.443Z,30.33
2023-08-13T14:32:09.973Z,29.86
2023-08-13T14:36:12.054Z,29.51
2023-08-13T14:40:17.697Z,29.33
2023-08-13T14:44:20.044Z,29.15
2023-08-13T14:48:22.453Z,28.93
2023-08-13T14:52:24.580Z,28.77
2023-08-13T14:56:26.730Z,28.80
2023-08-13T15:00:28.917Z,29.05
2023-08-13T15:04:31.182Z,29.75
2023-08-13T15:08:33.008Z,30.15
2023-08-13T15:12:41.489Z,30.51
2023-08-13T15:16:44.892Z,30.13
2023-08-13T15:20:50.026Z,30.24
2023-08-13T15:24:52.380Z,29.99
2023-08-13T15:28:54.400Z,29.56
2023-08-13T15:32:56.382Z,29.19
2023-08-13T15:37:00.388Z,28.92
2023-08-13T15:41:02.416Z,28.73
2023-08-13T15:45:04.963Z,28.90
2023-08-13T15:49:07.128Z,29.39
2023-08-13T15:53:09.210Z,29.66
2023-08-13T15:57:10.940Z,29.64
2023-08-13T16:01:13.157Z,29.06
2023-08-13T16:05:15.933Z,28.78
2023-08-13T16:09:18.216Z,28.51
2023-08-13T16:13:20.222Z,28.30
2023-08-13T16:17:22.496Z,28.25
2023-08-13T16:21:24.679Z,28.07
2023-08-13T16:25:26.823Z,28.04
2023-08-13T16:29:28.853Z,28.01
2023-08-13T16:33:30.920Z,27.88
2023-08-13T16:37:33.039Z,27.72
2023-08-13T16:41:35.174Z,27.56
2023-08-13T16:45:37.336Z,27.48
2023-08-13T16:49:39.370Z,27.36
2023-08-13T16:53:41.921Z,27.25
2023-08-13T16:57:44.042Z,27.06
2023-08-13T17:01:46.094Z,26.91
2023-08-13T17:05:49.193Z,26.79
2023-08-13T17:09:52.481Z,26.57
2023-08-13T17:13:54.669Z,26.52
2023-08-13T17:17:56.955Z,26.44
2023-08-13T17:21:59.428Z,26.37
2023-08-13T17:26:01.403Z,26.28
2023-08-13T17:30:03.692Z,26.10
2023-08-13T17:34:05.999Z,25.92
2023-08-13T17:38:08.054Z,25.59
2023-08-13T17:42:10.157Z,25.43
2023-08-13T17:46:12.291Z,25.30
2023-08-13T17:50:14.608Z,25.15
2023-08-13T17:54:17.240Z,25.02
2023-08-13T17:58:19.259Z,24.87
2023-08-13T18:02:21.504Z,24.78
2023-08-13T18:06:23.706Z,24.61
2023-08-13T18:10:25.776Z,24.42
2023-08-13T18:14:27.746Z,24.23
2023-08-13T18:18:29.948Z,24.17
2023-08-13T18:22:31.979Z,24.11
2023-08-13T18:26:34.114Z,24.08
2023-08-13T18:30:35.853Z,24.08
2023-08-13T18:34:38.028Z,24.01
2023-08-13T18:38:40.060Z,23.89
2023-08-13T18:42:45.290Z,23.75
2023-08-13T18:46:48.402Z,23.55
2023-08-13T18:50:51.059Z,23.26
2023-08-13T18:54:53.197Z,23.08
2023-08-13T18:58:55.360Z,22.92
2023-08-13T19:02:57.537Z,22.70
2023-08-13T19:06:59.829Z,22.54
2023-08-13T19:11:01.926Z,22.43
2023-08-13T19:15:04.477Z,22.36
2023-08-13T19:19:06.941Z,22.21
2023-08-13T19:23:10.649Z,22.05
2023-08-13T19:27:12.683Z,22.03
2023-08-13T19:31:15.154Z,21.81
2023-08-13T19:35:17.351Z,21.68
2023-08-13T19:39:20.284Z,21.52
2023-08-13T19:43:22.406Z,21.56
2023-08-13T19:47:24.514Z,21.47
2023-08-13T19:51:26.552Z,21.44
2023-08-13T19:55:29.651Z,21.33
2023-08-13T19:59:31.867Z,21.15
2023-08-13T20:03:34.019Z,21.05
2023-08-13T20:07:36.688Z,20.97
2023-08-13T20:11:38.832Z,20.93
2023-08-13T20:15:40.883Z,20.81
2023-08-13T20:19:43.833Z,20.78
2023-08-13T20:23:47.573Z,20.64
2023-08-13T20:27:50.710Z,20.61
2023-08-13T20:31:52.837Z,20.46
2023-08-13T20:35:54.920Z,20.36
2023-08-13T20:39:57.924Z,20.39
2023-08-13T20:44:00.078Z,20.34
2023-08-13T20:48:03.887Z,20.26
2023-08-13T20:52:06.178Z,20.18
2023-08-13T20:56:08.927Z,20.15
2023-08-13T21:00:11.857Z,20.12
2023-08-13T21:04:13.927Z,20.02
2023-08-13T21:08:16.066Z,20.01
2023-08-13T21:12:18.375Z,19.96
2023-08-13T21:16:20.758Z,19.85
2023-08-13T21:20:22.845Z,19.82
2023-08-13T21:24:25.056Z,19.82
2023-08-13T21:28:27.218Z,19.63
2023-08-13T21:32:29.277Z,19.58
2023-08-13T21:36:31.438Z,19.45
2023-08-13T21:40:33.719Z,19.43
2023-08-13T21:44:35.876Z,19.48
2023-08-13T21:48:37.955Z,19.46
2023-08-13T21:52:40.065Z,19.36
2023-08-13T21:56:42.293Z,19.31
2023-08-13T22:00:44.462Z,19.34
2023-08-13T22:04:46.547Z,19.27
2023-08-13T22:08:48.653Z,19.24
2023-08-13T22:12:51.044Z,19.10
2023-08-13T22:16:53.196Z,19.01
2023-08-13T22:20:55.347Z,18.98
2023-08-13T22:24:57.402Z,19.04
2023-08-13T22:28:59.411Z,19.01
2023-08-13T22:33:01.526Z,18.92
2023-08-13T22:37:03.783Z,18.93
2023-08-13T22:41:05.786Z,18.90
2023-08-13T22:45:08.776Z,18.75
2023-08-13T22:49:14.570Z,18.76
2023-08-13T22:53:16.677Z,18.85
2023-08-13T22:57:18.888Z,18.73
2023-08-13T23:01:21.865Z,18.77
2023-08-13T23:05:23.885Z,18.80
2023-08-13T23:09:26.850Z,18.79
2023-08-13T23:13:28.965Z,18.80
2023-08-13T23:17:31.182Z,18.79
2023-08-13T23:21:33.273Z,18.91
2023-08-13T23:25:35.133Z,18.98
2023-08-13T23:29:37.425Z,19.05
2023-08-13T23:33:39.436Z,19.22
2023-08-13T23:37:41.520Z,19.32
2023-08-13T23:41:47.134Z,19.40
2023-08-13T23:45:49.207Z,19.42
2023-08-13T23:49:51.428Z,19.45
2023-08-13T23:53:53.470Z,19.49
2023-08-13T23:57:55.579Z,19.47
